Time;durP1;ratioP1;P1;durP2;ratioP2;P2;SDS_P1;SDS_P2;PMS_P1;PMS_P2;Temp;Humidity;BMP_temperature;BMP_pressure;BME280_temperature;BME280_humidity;BME280_pressure;Samples;Min_cycle;Max_cycle;Signal;HPM_P1;HPM_P2
2023/05/01 00:01:33;;;;;;;4.60;3.40;;;;;;;6.24;100.00;99881.11;106847;1276;24912;-77
2023/05/01 00:04:01;;;;;;;3.40;2.90;;;;;;;6.20;100.00;99874.64;106814;1276;22551;-78
2023/05/01 00:06:28;;;;;;;5.50;3.40;;;;;;;6.18;100.00;99877.52;106811;1276;24288;-78
2023/05/01 00:08:56;;;;;;;3.50;3.10;;;;;;;6.18;100.00;99875.76;106786;1276;24288;-78
2023/05/01 00:11:23;;;;;;;4.40;3.10;;;;;;;6.17;100.00;99876.05;106825;1276;25399;-78
2023/05/01 00:13:53;;;;;;;3.30;2.80;;;;;;;6.15;100.00;99879.45;106814;1276;23894;-77
2023/05/01 00:16:20;;;;;;;5.50;2.70;;;;;;;6.12;100.00;99877.78;106819;1276;25492;-78
2023/05/01 00:18:47;;;;;;;3.40;2.70;;;;;;;6.10;100.00;99879.73;106788;1276;26506;-78
2023/05/01 00:21:15;;;;;;;4.10;2.60;;;;;;;6.10;100.00;99880.44;106802;1276;25306;-78
2023/05/01 00:23:43;;;;;;;4.50;2.90;;;;;;;6.10;100.00;99878.66;106827;1276;22530;-79
2023/05/01 00:26:10;;;;;;;3.40;2.90;;;;;;;6.11;100.00;99881.96;106832;1276;25348;-78
2023/05/01 00:28:38;;;;;;;2.70;2.50;;;;;;;6.11;100.00;99885.16;106845;1276;22540;-79
2023/05/01 00:31:05;;;;;;;2.60;2.40;;;;;;;6.08;100.00;99886.39;106781;1276;25255;-79
2023/05/01 00:33:33;;;;;;;2.10;2.00;;;;;;;6.05;100.00;99887.18;106823;1276;24480;-79
2023/05/01 00:36:00;;;;;;;2.40;2.20;;;;;;;6.04;100.00;99895.84;104571;1276;1003067;-80
2023/05/01 00:38:28;;;;;;;2.50;2.10;;;;;;;6.03;100.00;99896.80;106819;1276;25511;-80
2023/05/01 00:40:55;;;;;;;2.50;2.10;;;;;;;6.05;100.00;99902.20;106804;1276;22531;-79
2023/05/01 00:43:22;;;;;;;2.70;2.50;;;;;;;6.07;100.00;99902.55;106830;1276;25410;-79
2023/05/01 00:45:49;;;;;;;3.20;2.50;;;;;;;6.07;100.00;99903.95;106834;1276;24076;-77
2023/05/01 00:48:17;;;;;;;5.00;2.50;;;;;;;6.08;100.00;99900.84;106830;1276;22570;-79
2023/05/01 00:50:44;;;;;;;2.20;2.10;;;;;;;6.07;100.00;99899.51;106829;1276;24248;-77
2023/05/01 00:53:12;;;;;;;2.50;2.30;;;;;;;6.06;100.00;99900.70;106794;1276;22547;-78
2023/05/01 00:55:40;;;;;;;2.70;2.50;;;;;;;6.05;100.00;99901.47;106801;1269;24567;-78
2023/05/01 00:58:10;;;;;;;2.80;2.50;;;;;;;6.05;100.00;99909.02;106083;1277;1002978;-78
2023/05/01 01:00:37;;;;;;;2.90;2.40;;;;;;;6.02;100.00;99910.87;106791;1276;22534;-78
2023/05/01 01:03:05;;;;;;;2.60;2.40;;;;;;;6.02;100.00;99912.65;106738;1276;23834;-78
2023/05/01 01:05:35;;;;;;;2.60;2.40;;;;;;;6.03;100.00;99916.00;106814;1276;22534;-78
2023/05/01 01:08:09;;;;;;;2.80;2.50;;;;;;;6.00;100.00;99907.52;106789;1276;22559;-78
2023/05/01 01:10:50;;;;;;;3.00;2.60;;;;;;;5.98;100.00;99910.19;106814;1276;22749;-78
2023/05/01 01:13:38;;;;;;;2.70;2.50;;;;;;;5.96;100.00;99906.84;106834;1276;22519;-78
2023/05/01 01:16:18;;;;;;;2.80;2.60;;;;;;;5.96;100.00;99908.59;106765;1276;24323;-79
2023/05/01 01:19:00;;;;;;;2.20;2.10;;;;;;;5.95;100.00;99905.10;106842;1276;22537;-78
2023/05/01 01:21:34;;;;;;;4.40;2.40;;;;;;;5.96;100.00;99905.91;106841;1276;25366;-78
2023/05/01 01:24:32;;;;;;;2.10;2.00;;;;;;;5.97;100.00;99906.20;106838;1276;25281;-79
2023/05/01 01:27:24;;;;;;;4.00;2.50;;;;;;;5.96;100.00;99903.25;106809;1276;22990;-79
2023/05/01 01:30:22;;;;;;;2.80;2.50;;;;;;;5.95;100.00;99898.85;106760;1276;22539;-79
2023/05/01 01:33:16;;;;;;;5.10;2.10;;;;;;;5.92;100.00;99896.05;106816;1276;22526;-79
2023/05/01 01:35:48;;;;;;;2.40;2.20;;;;;;;5.89;100.00;99896.64;104585;1276;1004297;-79
2023/05/01 01:38:16;;;;;;;2.40;2.20;;;;;;;5.88;100.00;99902.65;106783;1276;24378;-79
2023/05/01 01:41:08;;;;;;;2.40;2.20;;;;;;;5.87;100.00;99904.00;106819;1276;25350;-79
2023/05/01 01:43:47;;;;;;;2.90;2.70;;;;;;;5.89;100.00;99900.64;106802;1276;22527;-79
2023/05/01 01:46:16;;;;;;;4.20;2.80;;;;;;;5.89;100.00;99907.45;106830;1276;22527;-79
2023/05/01 01:48:45;;;;;;;3.10;2.80;;;;;;;5.88;100.00;99913.75;106726;1276;22531;-79
2023/05/01 01:51:14;;;;;;;3.60;3.10;;;;;;;5.88;100.00;99913.23;106843;1276;22514;-79
2023/05/01 01:53:45;;;;;;;5.40;3.00;;;;;;;5.88;100.00;99914.69;106734;1276;25419;-79
2023/05/01 01:56:12;;;;;;;4.30;2.90;;;;;;;5.88;100.00;99917.67;106842;1276;23891;-79
2023/05/01 01:58:39;;;;;;;3.50;3.20;;;;;;;5.87;100.00;99920.84;106753;1276;25369;-79
2023/05/01 02:01:06;;;;;;;3.80;3.10;;;;;;;5.87;100.00;99927.11;106707;1277;22513;-79
2023/05/01 02:03:34;;;;;;;4.30;3.60;;;;;;;5.86;100.00;99934.57;106792;1277;22602;-79
2023/05/01 02:06:02;;;;;;;3.90;3.30;;;;;;;5.84;100.00;99937.39;106677;1277;22522;-79
2023/05/01 02:08:29;;;;;;;4.30;3.30;;;;;;;5.84;100.00;99942.45;106800;1277;25259;-77
2023/05/01 02:10:58;;;;;;;5.90;3.20;;;;;;;5.84;100.00;99944.55;106688;1277;22526;-79
2023/05/01 02:13:28;;;;;;;5.10;3.50;;;;;;;5.84;100.00;99947.42;106697;1277;24318;-79
2023/05/01 02:15:57;;;;;;;3.80;3.50;;;;;;;5.85;100.00;99950.05;106866;1277;22592;-79
2023/05/01 02:18:26;;;;;;;5.30;3.80;;;;;;;5.85;100.00;99952.20;106797;1277;22544;-79
2023/05/01 02:20:55;;;;;;;4.80;3.30;;;;;;;5.85;100.00;99958.45;106895;1277;22543;-79
2023/05/01 02:23:24;;;;;;;4.40;3.40;;;;;;;5.84;100.00;99964.45;106830;1277;25247;-79
2023/05/01 02:25:51;;;;;;;4.30;3.60;;;;;;;5.83;100.00;99972.06;106814;1277;22520;-79
2023/05/01 02:28:22;;;;;;;4.80;3.70;;;;;;;5.83;100.00;99971.55;106794;1277;22563;-78
2023/05/01 02:30:49;;;;;;;5.30;3.80;;;;;;;5.85;100.00;99971.89;106726;1277;25388;-78
2023/05/01 02:33:16;;;;;;;5.10;3.90;;;;;;;5.86;100.00;99978.19;106798;1277;22535;-78
2023/05/01 02:35:48;;;;;;;5.60;3.80;;;;;;;5.87;100.00;99981.12;106790;1277;22526;-78
2023/05/01 02:38:15;;;;;;;5.10;3.70;;;;;;;5.88;100.00;99981.94;106785;1277;24289;-78
2023/05/01 02:40:49;;;;;;;6.00;3.90;;;;;;;5.88;100.00;99987.45;106741;1277;22539;-78
2023/05/01 02:43:17;;;;;;;5.80;4.20;;;;;;;5.88;100.00;99993.77;106821;1277;23102;-79
2023/05/01 02:45:45;;;;;;;4.20;3.30;;;;;;;5.88;100.00;100003.44;106783;1277;22568;-78
2023/05/01 02:48:16;;;;;;;5.90;4.00;;;;;;;5.89;100.00;100011.20;106748;1277;22707;-78
2023/05/01 02:50:44;;;;;;;6.50;4.00;;;;;;;5.89;100.00;100016.00;106800;1277;23869;-77
2023/05/01 02:53:11;;;;;;;7.20;4.10;;;;;;;5.88;100.00;100020.73;106787;1277;24324;-78
2023/05/01 02:55:44;;;;;;;9.10;4.20;;;;;;;5.88;100.00;100027.23;106807;1276;22536;-78
2023/05/01 02:58:19;;;;;;;6.80;4.00;;;;;;;5.86;100.00;100028.84;106806;1276;25453;-78
2023/05/01 03:00:48;;;;;;;8.10;4.70;;;;;;;5.86;100.00;100034.88;106813;1276;22544;-78
2023/05/01 03:03:16;;;;;;;9.40;5.70;;;;;;;5.87;100.00;100043.22;106843;1276;22516;-77
2023/05/01 03:05:44;;;;;;;9.20;5.70;;;;;;;5.89;100.00;100045.73;106790;1276;22537;-78
2023/05/01 03:08:12;;;;;;;7.40;4.80;;;;;;;5.90;100.00;100049.06;106799;1276;24387;-78
2023/05/01 03:10:42;;;;;;;5.80;4.30;;;;;;;5.90;100.00;100056.20;106844;1276;25290;-78
2023/05/01 03:13:12;;;;;;;6.10;3.90;;;;;;;5.90;100.00;100059.90;106825;1276;22520;-78
2023/05/01 03:15:40;;;;;;;7.00;3.80;;;;;;;5.91;100.00;100065.75;106740;1276;22537;-77
2023/05/01 03:18:08;;;;;;;6.20;4.20;;;;;;;5.92;100.00;100071.77;106595;1276;25379;-77
2023/05/01 03:20:35;;;;;;;4.60;3.60;;;;;;;5.91;100.00;100076.49;106581;1276;22528;-78
2023/05/01 03:23:03;;;;;;;5.20;3.80;;;;;;;5.91;100.00;100079.58;106408;1276;22523;-77
2023/05/01 03:25:31;;;;;;;7.00;3.90;;;;;;;5.92;100.00;100084.65;106663;1276;22636;-78
2023/05/01 03:27:59;;;;;;;10.70;5.10;;;;;;;5.94;100.00;100086.29;106805;1276;22591;-79
2023/05/01 03:30:26;;;;;;;8.70;5.00;;;;;;;5.93;100.00;100088.80;106834;1276;22993;-78
2023/05/01 03:32:54;;;;;;;11.30;5.70;;;;;;;5.94;100.00;100090.21;106865;1276;25350;-79
2023/05/01 03:35:26;;;;;;;12.80;6.10;;;;;;;5.96;100.00;100091.32;106848;1276;22520;-78
2023/05/01 03:37:54;;;;;;;16.30;6.60;;;;;;;5.97;100.00;100095.45;106885;1270;22530;-78
2023/05/01 03:40:41;;;;;;;11.00;5.00;;;;;;;5.98;100.00;100095.92;106828;1275;22543;-77
2023/05/01 03:43:31;;;;;;;6.60;4.10;;;;;;;5.99;100.00;100098.01;106720;1275;22523;-77
2023/05/01 03:46:01;;;;;;;6.70;4.20;;;;;;;6.02;100.00;100104.20;106892;1275;25406;-78
2023/05/01 03:48:30;;;;;;;15.30;6.50;;;;;;;6.04;100.00;100108.39;106898;1275;22520;-78
2023/05/01 03:50:57;;;;;;;11.40;6.30;;;;;;;6.09;100.00;100113.02;106811;1275;22764;-78
2023/05/01 03:53:24;;;;;;;10.60;5.80;;;;;;;6.12;100.00;100114.92;106835;1275;24471;-78
2023/05/01 03:55:52;;;;;;;13.90;6.60;;;;;;;6.13;100.00;100113.58;106836;1269;22562;-77
2023/05/01 03:58:21;;;;;;;12.70;5.80;;;;;;;6.15;100.00;100115.89;106751;1276;22617;-78
2023/05/01 04:00:49;;;;;;;11.80;6.10;;;;;;;6.17;100.00;100114.97;106826;1276;24989;-78
2023/05/01 04:03:17;;;;;;;10.30;5.10;;;;;;;6.19;100.00;100117.09;106792;1276;22526;-78
2023/05/01 04:05:45;;;;;;;13.40;6.10;;;;;;;6.21;100.00;100116.41;106766;1276;22732;-77
2023/05/01 04:08:12;;;;;;;13.60;6.50;;;;;;;6.23;100.00;100112.64;106811;1276;25323;-78
2023/05/01 04:10:39;;;;;;;13.00;6.20;;;;;;;6.25;100.00;100117.76;106740;1276;23003;-78
2023/05/01 04:13:08;;;;;;;14.80;6.90;;;;;;;6.28;100.00;100115.60;106580;1276;24500;-77
2023/05/01 04:15:35;;;;;;;12.10;6.40;;;;;;;6.30;100.00;100115.42;106791;1277;25332;-77
2023/05/01 04:18:02;;;;;;;9.00;4.40;;;;;;;6.32;100.00;100113.96;106746;1277;24249;-78
2023/05/01 04:20:30;;;;;;;5.30;3.40;;;;;;;6.33;100.00;100113.48;106783;1277;25246;-78
2023/05/01 04:22:58;;;;;;;6.40;3.30;;;;;;;6.34;100.00;100116.14;106815;1276;24285;-78
2023/05/01 04:25:25;;;;;;;5.70;3.20;;;;;;;6.33;100.00;100113.69;106792;1275;23204;-79
2023/05/01 04:27:56;;;;;;;6.30;3.70;;;;;;;6.32;100.00;100113.92;106793;1276;22550;-79
2023/05/01 04:30:23;;;;;;;5.50;3.60;;;;;;;6.32;100.00;100112.68;106844;1276;25310;-79
2023/05/01 04:32:50;;;;;;;9.60;5.50;;;;;;;6.33;100.00;100108.45;106814;1276;22614;-78
2023/05/01 04:35:18;;;;;;;11.60;6.20;;;;;;;6.34;100.00;100106.20;106800;1276;22534;-78
2023/05/01 04:37:46;;;;;;;12.60;6.20;;;;;;;6.35;100.00;100103.68;106392;1276;22520;-79
2023/05/01 04:40:13;;;;;;;16.10;7.20;;;;;;;6.37;100.00;100103.63;106622;1276;23851;-79
2023/05/01 04:42:41;;;;;;;14.60;7.30;;;;;;;6.39;100.00;100105.02;106762;1276;22515;-79
2023/05/01 04:45:11;;;;;;;16.30;8.50;;;;;;;6.40;100.00;100104.39;106817;1276;22524;-79
2023/05/01 04:47:39;;;;;;;17.20;8.50;;;;;;;6.41;100.00;100105.39;106815;1276;22519;-79
2023/05/01 04:50:07;;;;;;;16.60;9.50;;;;;;;6.43;100.00;100107.72;106850;1276;23109;-79
2023/05/01 04:52:34;;;;;;;14.70;7.70;;;;;;;6.45;100.00;100105.72;106793;1276;22523;-79
2023/05/01 04:55:03;;;;;;;19.70;9.90;;;;;;;6.49;100.00;100100.99;106841;1276;22532;-78
2023/05/01 04:57:32;;;;;;;18.90;10.00;;;;;;;6.51;100.00;100102.89;106832;1276;22598;-78
2023/05/01 05:00:00;;;;;;;17.70;9.20;;;;;;;6.52;100.00;100103.23;106850;1275;22527;-79
2023/05/01 05:02:31;;;;;;;19.70;8.60;;;;;;;6.55;100.00;100101.96;106896;1275;22523;-78
2023/05/01 05:04:58;;;;;;;16.20;8.40;;;;;;;6.60;100.00;100107.16;106985;1275;24250;-78
2023/05/01 05:07:26;;;;;;;10.70;6.50;;;;;;;6.64;100.00;100105.77;106845;1275;24326;-78
2023/05/01 05:10:11;;;;;;;9.30;5.50;;;;;;;6.70;100.00;100102.61;106861;1272;25441;-77
2023/05/01 05:12:41;;;;;;;7.90;4.50;;;;;;;6.75;100.00;100109.27;106801;1276;22539;-77
2023/05/01 05:15:08;;;;;;;7.50;4.20;;;;;;;6.80;100.00;100110.19;106797;1277;24467;-77
2023/05/01 05:17:35;;;;;;;6.00;3.90;;;;;;;6.86;100.00;100114.13;106801;1277;26170;-77
2023/05/01 05:20:03;;;;;;;7.30;4.10;;;;;;;6.90;100.00;100115.50;106736;1277;22535;-76
2023/05/01 05:22:31;;;;;;;14.90;8.10;;;;;;;6.97;100.00;100119.38;106726;1277;22521;-76
2023/05/01 05:25:24;;;;;;;;;;;;;;;7.05;100.00;100111.79;106726;1277;22505;-77
2023/05/01 05:27:52;;;;;;;11.80;5.60;;;;;;;7.17;100.00;100119.77;106757;1277;22527;-78
2023/05/01 05:30:19;;;;;;;13.50;6.80;;;;;;;7.31;100.00;100125.59;106832;1277;22517;-74
2023/05/01 05:32:46;;;;;;;13.50;7.20;;;;;;;7.44;100.00;100129.22;106618;1277;25418;-77
2023/05/01 05:35:14;;;;;;;8.90;5.20;;;;;;;7.56;100.00;100133.60;106075;1277;1002952;-75
2023/05/01 05:37:42;;;;;;;7.20;4.60;;;;;;;7.68;100.00;100130.52;106636;1277;22527;-77
2023/05/01 05:40:12;;;;;;;8.10;4.80;;;;;;;7.75;100.00;100125.42;106798;1277;25243;-77
2023/05/01 05:42:48;;;;;;;7.80;4.40;;;;;;;7.84;100.00;100115.98;106651;1277;22520;-77
2023/05/01 05:45:15;;;;;;;22.30;10.60;;;;;;;7.98;100.00;100110.77;106827;1277;22731;-78
2023/05/01 05:47:43;;;;;;;18.90;9.70;;;;;;;8.17;100.00;100097.41;106719;1277;22526;-78
2023/05/01 05:50:11;;;;;;;24.40;11.80;;;;;;;8.42;100.00;100094.41;106780;1277;22517;-80
2023/05/01 05:52:40;;;;;;;12.40;5.80;;;;;;;8.72;100.00;100085.82;106790;1277;22539;-75
2023/05/01 05:55:08;;;;;;;15.90;8.10;;;;;;;9.07;100.00;100077.54;106729;1277;22524;-75
2023/05/01 05:57:36;;;;;;;19.20;9.70;;;;;;;9.32;100.00;100068.36;106717;1277;22481;-74
2023/05/01 06:00:08;;;;;;;13.20;6.70;;;;;;;9.42;100.00;100048.13;106790;1277;22521;-76
2023/05/01 06:02:38;;;;;;;19.30;8.70;;;;;;;9.51;100.00;100032.20;106827;1253;24385;-78
2023/05/01 06:05:06;;;;;;;10.10;5.00;;;;;;;9.59;100.00;100019.16;106878;1272;22589;-76
2023/05/01 06:07:34;;;;;;;7.80;4.30;;;;;;;9.58;100.00;100012.80;106782;1277;22639;-76
2023/05/01 06:10:05;;;;;;;8.00;3.80;;;;;;;9.45;100.00;100006.54;106837;1277;25291;-78
2023/05/01 06:12:32;;;;;;;15.30;7.80;;;;;;;9.35;100.00;100004.02;106551;1277;183521;-79
2023/05/01 06:15:04;;;;;;;37.50;22.00;;;;;;;9.31;100.00;100000.32;106858;1276;24636;-78
2023/05/01 06:17:33;;;;;;;18.00;9.90;;;;;;;9.31;100.00;99991.86;106883;1276;22542;-79
2023/05/01 06:20:01;;;;;;;12.70;6.00;;;;;;;9.28;100.00;99989.48;106963;1276;24270;-77
2023/05/01 06:22:28;;;;;;;14.80;6.40;;;;;;;9.23;100.00;99985.35;106869;1276;25279;-74
2023/05/01 06:25:03;;;;;;;16.60;9.20;;;;;;;9.16;100.00;99989.85;106850;1276;22524;-76
2023/05/01 06:27:32;;;;;;;11.30;6.30;;;;;;;9.11;100.00;100000.27;108261;1276;24564;-74
2023/05/01 06:29:59;;;;;;;20.20;9.10;;;;;;;9.06;100.00;100008.19;106825;1276;22580;-77
2023/05/01 06:32:27;;;;;;;17.20;9.30;;;;;;;9.04;100.00;100018.17;106877;1274;25806;-77
2023/05/01 06:34:54;;;;;;;8.60;4.40;;;;;;;9.02;100.00;100026.02;106788;1277;25382;-76
2023/05/01 06:37:22;;;;;;;7.10;3.90;;;;;;;9.00;100.00;100029.16;106833;1276;25464;-77
2023/05/01 06:39:49;;;;;;;7.60;4.10;;;;;;;8.95;100.00;100036.19;106074;1272;1003713;-76
2023/05/01 06:42:17;;;;;;;6.40;3.90;;;;;;;8.90;100.00;100040.77;106791;1270;22520;-77
2023/05/01 06:44:44;;;;;;;7.00;3.20;;;;;;;8.88;100.00;100045.63;106663;1276;22523;-76
2023/05/01 06:47:12;;;;;;;5.60;4.10;;;;;;;8.87;100.00;100046.83;106461;1276;25350;-77
2023/05/01 06:49:39;;;;;;;30.00;16.40;;;;;;;8.94;100.00;100049.53;106548;1275;22530;-75
2023/05/01 06:52:06;;;;;;;7.70;4.80;;;;;;;9.10;100.00;100050.36;106833;1273;25347;-77
2023/05/01 06:54:34;;;;;;;11.70;4.30;;;;;;;9.30;100.00;100057.13;106874;1269;22493;-79
2023/05/01 06:57:02;;;;;;;9.90;6.10;;;;;;;9.43;100.00;100064.15;106845;1275;25239;-77
2023/05/01 06:59:29;;;;;;;7.10;4.20;;;;;;;9.47;100.00;100074.86;106913;1275;24280;-76
2023/05/01 07:01:57;;;;;;;10.10;5.50;;;;;;;9.40;100.00;100080.16;106962;1270;22564;-76
2023/05/01 07:04:24;;;;;;;10.20;4.60;;;;;;;9.29;100.00;100091.55;106779;1276;25496;-76
2023/05/01 07:06:52;;;;;;;5.20;3.70;;;;;;;9.19;100.00;100096.21;106734;1276;25980;-76
2023/05/01 07:09:20;;;;;;;6.30;3.80;;;;;;;9.09;100.00;100096.91;106794;1276;24222;-74
2023/05/01 07:11:48;;;;;;;6.30;3.70;;;;;;;9.01;100.00;100101.52;106789;1276;23893;-76
2023/05/01 07:14:16;;;;;;;5.70;3.90;;;;;;;9.00;100.00;100105.25;106763;1277;25236;-74
2023/05/01 07:16:43;;;;;;;9.10;4.80;;;;;;;9.06;100.00;100107.82;106793;1277;24235;-77
2023/05/01 07:19:12;;;;;;;15.30;6.60;;;;;;;9.29;100.00;100110.50;106880;1277;24229;-75
2023/05/01 07:21:40;;;;;;;13.80;6.50;;;;;;;9.72;100.00;100098.88;106861;1272;26507;-75
2023/05/01 07:24:08;;;;;;;11.00;5.10;;;;;;;10.18;100.00;100096.36;106829;1276;22555;-78
2023/05/01 07:26:36;;;;;;;10.40;5.00;;;;;;;10.40;100.00;100103.14;106872;1271;25301;-72
2023/05/01 07:29:03;;;;;;;6.60;3.70;;;;;;;10.39;100.00;100107.91;106820;1272;25243;-74
2023/05/01 07:31:31;;;;;;;5.00;2.90;;;;;;;10.28;100.00;100105.80;106863;1275;24508;-73
2023/05/01 07:33:58;;;;;;;4.00;2.80;;;;;;;10.09;100.00;100109.35;106791;1269;22518;-72
2023/05/01 07:36:25;;;;;;;4.70;2.90;;;;;;;9.84;100.00;100110.75;106655;1272;25382;-66
2023/05/01 07:38:54;;;;;;;14.20;5.50;;;;;;;9.66;100.00;100111.41;106702;1274;25411;-66
2023/05/01 07:41:21;;;;;;;11.50;6.50;;;;;;;9.58;100.00;100115.15;106729;1270;22569;-66
2023/05/01 07:43:51;;;;;;;11.20;5.20;;;;;;;9.61;100.00;100117.14;106795;1273;25555;-67
2023/05/01 07:46:19;;;;;;;23.50;12.10;;;;;;;9.67;100.00;100118.67;106789;1272;25291;-68
2023/05/01 07:48:46;;;;;;;6.00;3.00;;;;;;;9.69;100.00;100120.14;106547;1270;25427;-65
2023/05/01 07:51:13;;;;;;;8.10;3.90;;;;;;;9.71;100.00;100122.29;106582;1275;25665;-66
2023/05/01 07:53:41;;;;;;;4.80;3.50;;;;;;;9.71;100.00;100125.66;106604;1275;22991;-67
2023/05/01 07:56:09;;;;;;;3.70;2.50;;;;;;;9.74;100.00;100126.29;106655;1276;24256;-67
2023/05/01 07:58:36;;;;;;;3.50;2.60;;;;;;;9.73;100.00;100128.55;106692;1275;24285;-70
2023/05/01 08:01:04;;;;;;;4.00;2.40;;;;;;;9.67;100.00;100130.17;106864;1276;22520;-67
2023/05/01 08:03:31;;;;;;;3.10;2.40;;;;;;;9.63;100.00;100134.78;106782;1270;22629;-66
2023/05/01 08:05:59;;;;;;;7.90;4.60;;;;;;;9.65;100.00;100131.89;106814;1268;22741;-68
2023/05/01 08:08:27;;;;;;;4.50;3.40;;;;;;;9.62;100.00;100132.19;106808;1271;23919;-67
2023/05/01 08:10:57;;;;;;;6.30;3.20;;;;;;;9.56;100.00;100131.89;106793;1269;25306;-68
2023/05/01 08:13:25;;;;;;;6.50;3.40;;;;;;;9.50;100.00;100131.60;106993;1276;22517;-78
2023/05/01 08:15:52;;;;;;;6.00;3.60;;;;;;;9.47;100.00;100133.56;107089;1275;22596;-76
2023/05/01 08:18:19;;;;;;;7.90;3.30;;;;;;;9.49;100.00;100128.86;106860;1277;24253;-78
2023/05/01 08:20:47;;;;;;;3.10;2.60;;;;;;;9.54;100.00;100127.09;106875;1271;26652;-77
2023/05/01 08:23:18;;;;;;;4.80;3.20;;;;;;;9.55;100.00;100128.41;107515;1276;22554;-77
2023/05/01 08:25:50;;;;;;;10.70;4.60;;;;;;;9.52;100.00;100137.04;106743;1276;24202;-76
2023/05/01 08:28:20;;;;;;;14.70;5.40;;;;;;;9.46;100.00;100136.27;106812;1275;25293;-74
2023/05/01 08:30:50;;;;;;;11.30;5.00;;;;;;;9.38;100.00;100130.52;106809;1272;22509;-75
2023/05/01 08:33:18;;;;;;;11.30;4.90;;;;;;;9.34;100.00;100134.92;106728;1269;22519;-75
2023/05/01 08:35:45;;;;;;;12.50;5.90;;;;;;;9.33;100.00;100130.23;106732;1277;22539;-72
2023/05/01 08:38:12;;;;;;;13.60;6.70;;;;;;;9.35;100.00;100129.05;106608;1270;24407;-70
2023/05/01 08:40:40;;;;;;;16.20;6.30;;;;;;;9.42;100.00;100127.43;106679;1275;22531;-72
2023/05/01 08:43:08;;;;;;;10.60;4.60;;;;;;;9.53;100.00;100125.36;106716;1272;22628;-72
2023/05/01 08:45:36;;;;;;;8.20;4.00;;;;;;;9.64;100.00;100127.59;106752;1275;24379;-73
2023/05/01 08:48:05;;;;;;;8.00;3.80;;;;;;;9.66;100.00;100133.58;106757;1276;22531;-73
2023/05/01 08:50:36;;;;;;;4.50;2.90;;;;;;;9.59;100.00;100142.94;106679;1270;22625;-72
2023/05/01 08:53:05;;;;;;;7.90;3.80;;;;;;;9.48;100.00;100148.35;106655;1273;22523;-74
2023/05/01 08:55:33;;;;;;;8.50;3.70;;;;;;;9.40;100.00;100146.55;106734;1276;25363;-74
2023/05/01 08:58:02;;;;;;;9.60;4.00;;;;;;;9.36;100.00;100151.80;106620;1275;25501;-73
2023/05/01 09:00:30;;;;;;;5.00;3.10;;;;;;;9.35;100.00;100149.06;106281;1278;24755;-74
2023/05/01 09:02:59;;;;;;;6.30;3.30;;;;;;;9.37;100.00;100151.95;106648;1266;25609;-64
2023/05/01 09:05:27;;;;;;;6.90;3.20;;;;;;;9.35;100.00;100154.63;106630;1276;24202;-65
2023/05/01 09:07:55;;;;;;;6.40;3.70;;;;;;;9.34;100.00;100159.05;106479;1275;22553;-65
2023/05/01 09:10:22;;;;;;;5.00;3.60;;;;;;;9.29;100.00;100165.32;106686;1270;22665;-67
2023/05/01 09:13:10;;;;;;;6.20;3.60;;;;;;;9.19;100.00;100169.64;106507;1276;23129;-64
2023/05/01 09:15:37;;;;;;;7.60;3.80;;;;;;;9.08;100.00;100178.67;106834;1276;24212;-63
2023/05/01 09:18:05;;;;;;;10.30;4.10;;;;;;;9.02;100.00;100171.02;105858;1270;1003224;-64
2023/05/01 09:20:36;;;;;;;10.00;4.10;;;;;;;8.99;100.00;100174.59;106589;1272;22838;-63
2023/05/01 09:23:03;;;;;;;6.50;3.80;;;;;;;8.98;100.00;100173.18;106683;1269;22567;-64
2023/05/01 09:25:31;;;;;;;5.60;3.00;;;;;;;9.04;100.00;100162.11;106560;1276;24014;-66
2023/05/01 09:27:58;;;;;;;5.50;3.40;;;;;;;9.16;100.00;100159.48;106616;1276;24321;-76
2023/05/01 09:30:36;;;;;;;7.00;2.80;;;;;;;9.29;100.00;100155.40;106771;1272;25689;-73
2023/05/01 09:33:07;;;;;;;3.90;2.60;;;;;;;9.41;100.00;100157.19;106698;1275;24259;-63
2023/05/01 09:35:56;;;;;;;5.20;2.90;;;;;;;9.52;100.00;100157.20;106744;1276;22531;-65
2023/05/01 09:38:24;;;;;;;7.60;3.30;;;;;;;9.63;100.00;100163.73;106666;1275;22578;-64
2023/05/01 09:40:55;;;;;;;7.10;3.60;;;;;;;9.71;100.00;100161.45;106744;1273;24507;-64
2023/05/01 09:43:26;;;;;;;7.30;3.60;;;;;;;9.74;100.00;100167.86;106706;1275;24259;-64
2023/05/01 09:46:10;;;;;;;5.50;3.40;;;;;;;9.71;100.00;100175.92;106623;1276;24200;-74
2023/05/01 09:48:38;;;;;;;5.60;3.40;;;;;;;9.64;100.00;100179.98;106658;1273;22571;-74
2023/05/01 09:51:27;;;;;;;4.50;2.90;;;;;;;9.62;100.00;100183.17;106692;1276;24303;-64
2023/05/01 09:53:58;;;;;;;6.30;3.60;;;;;;;9.60;100.00;100196.13;106762;1269;22541;-64
2023/05/01 09:56:26;;;;;;;4.90;3.50;;;;;;;9.60;100.00;100193.80;106672;1276;25461;-65
2023/05/01 09:58:54;;;;;;;6.20;3.60;;;;;;;9.60;100.00;100188.77;106747;1276;22530;-63
2023/05/01 10:01:42;;;;;;;13.30;5.00;;;;;;;9.68;100.00;100193.09;106722;1275;22513;-64
2023/05/01 10:04:09;;;;;;;15.70;6.80;;;;;;;9.91;100.00;100194.13;106711;1269;25486;-63
2023/05/01 10:06:38;;;;;;;15.70;6.60;;;;;;;10.14;100.00;100189.27;106677;1272;25352;-64
2023/05/01 10:09:07;;;;;;;19.50;5.70;;;;;;;10.37;100.00;100189.80;106736;1276;22644;-65
2023/05/01 10:11:48;;;;;;;11.80;5.00;;;;;;;10.56;100.00;100186.98;106763;1272;25255;-63
2023/05/01 10:14:15;;;;;;;6.30;4.60;;;;;;;10.76;100.00;100194.00;106659;1275;22778;-63
2023/05/01 10:16:43;;;;;;;8.70;4.20;;;;;;;10.90;100.00;100191.95;106673;1276;22536;-64
2023/05/01 10:19:11;;;;;;;7.10;3.90;;;;;;;11.02;100.00;100198.23;106715;1276;24390;-63
2023/05/01 10:21:38;;;;;;;8.10;3.90;;;;;;;11.13;100.00;100205.83;106673;1275;24347;-63
2023/05/01 10:24:08;;;;;;;6.10;3.50;;;;;;;11.25;100.00;100209.20;106719;1276;24479;-66
2023/05/01 10:26:36;;;;;;;4.80;3.20;;;;;;;11.33;100.00;100218.22;106746;1276;24399;-65
2023/05/01 10:29:03;;;;;;;6.30;3.10;;;;;;;11.42;100.00;100217.91;106719;1275;22524;-63
2023/05/01 10:31:31;;;;;;;4.60;3.30;;;;;;;11.49;100.00;100221.34;106587;1276;22776;-64
2023/05/01 10:34:00;;;;;;;5.70;2.90;;;;;;;11.51;100.00;100227.60;106361;1276;22606;-65
2023/05/01 10:36:39;;;;;;;3.40;2.80;;;;;;;11.49;100.00;100236.12;106446;1275;22516;-65
2023/05/01 10:39:06;;;;;;;4.30;3.10;;;;;;;11.43;100.00;100250.15;106659;1273;22535;-65
2023/05/01 10:42:03;;;;;;;8.80;3.50;;;;;;;11.41;100.00;100248.36;106504;1270;25938;-67
2023/05/01 10:44:31;;;;;;;7.90;3.60;;;;;;;11.48;100.00;100256.10;106759;1276;24465;-65
2023/05/01 10:46:58;;;;;;;7.30;3.20;;;;;;;11.57;100.00;100246.87;106727;1276;22529;-64
2023/05/01 10:49:57;;;;;;;6.00;3.20;;;;;;;11.67;100.00;100244.32;106682;1270;22909;-64
2023/05/01 10:52:25;;;;;;;7.10;3.50;;;;;;;11.78;100.00;100251.27;106691;1273;22524;-64
2023/05/01 10:54:52;;;;;;;7.60;3.40;;;;;;;11.86;100.00;100242.02;106724;1276;23596;-64
2023/05/01 10:57:40;;;;;;;6.10;3.60;;;;;;;11.96;100.00;100244.15;106735;1276;22615;-63
2023/05/01 11:00:08;;;;;;;5.20;3.30;;;;;;;12.03;100.00;100248.27;106681;1273;22517;-64
2023/05/01 11:02:35;;;;;;;5.90;3.70;;;;;;;12.08;100.00;100246.45;106608;1276;22779;-65
2023/05/01 11:05:03;;;;;;;6.20;3.50;;;;;;;12.12;100.00;100254.33;106571;1277;22625;-64
2023/05/01 11:07:32;;;;;;;4.80;3.30;;;;;;;12.17;100.00;100258.11;106697;1276;25425;-65
2023/05/01 11:10:00;;;;;;;4.00;3.10;;;;;;;12.22;100.00;100258.08;106614;1273;24375;-65
2023/05/01 11:12:44;;;;;;;6.90;4.10;;;;;;;12.23;100.00;100262.78;106809;1276;22609;-64
2023/05/01 11:15:12;;;;;;;5.60;4.30;;;;;;;12.27;100.00;100274.05;106639;1270;25337;-72
2023/05/01 11:17:43;;;;;;;6.30;3.80;;;;;;;12.31;100.00;100277.63;106590;1276;25571;-72
2023/05/01 11:20:23;;;;;;;4.20;3.40;;;;;;;12.34;100.00;100283.27;106650;1275;22542;-73
2023/05/01 11:22:53;;;;;;;7.60;3.30;;;;;;;12.36;100.00;100291.50;106682;1276;22533;-72
2023/05/01 11:25:32;;;;;;;5.80;3.60;;;;;;;12.38;100.00;100289.52;106679;1275;25315;-73
2023/05/01 11:28:00;;;;;;;6.60;3.60;;;;;;;12.35;100.00;100296.69;106671;1270;25317;-73